sensor_id;sensor_type;location;lat;lon;timestamp;P1;durP1;ratioP1;P2;durP2;ratioP2
12840;SDS011;6487;48.626;12.486;2023-04-24T00:01:07;3.10;;;1.70;;
12840;SDS011;6487;48.626;12.486;2023-04-24T00:03:35;4.33;;;1.70;;
12840;SDS011;6487;48.626;12.486;2023-04-24T00:06:05;3.03;;;1.40;;
12840;SDS011;6487;48.626;12.486;2023-04-24T00:08:44;2.70;;;1.63;;
12840;SDS011;6487;48.626;12.486;2023-04-24T00:11:12;4.77;;;1.90;;
12840;SDS011;6487;48.626;12.486;2023-04-24T00:13:40;4.20;;;1.87;;
12840;SDS011;6487;48.626;12.486;2023-04-24T00:16:10;4.23;;;1.67;;
12840;SDS011;6487;48.626;12.486;2023-04-24T00:18:38;3.87;;;1.47;;
12840;SDS011;6487;48.626;12.486;2023-04-24T00:21:07;3.97;;;1.77;;
12840;SDS011;6487;48.626;12.486;2023-04-24T00:23:35;2.03;;;1.47;;
12840;SDS011;6487;48.626;12.486;2023-04-24T00:26:07;3.23;;;1.43;;
12840;SDS011;6487;48.626;12.486;2023-04-24T00:28:35;2.03;;;1.83;;
12840;SDS011;6487;48.626;12.486;2023-04-24T00:31:03;2.20;;;1.50;;
12840;SDS011;6487;48.626;12.486;2023-04-24T00:33:33;2.70;;;1.90;;
12840;SDS011;6487;48.626;12.486;2023-04-24T00:36:02;2.97;;;1.80;;
12840;SDS011;6487;48.626;12.486;2023-04-24T00:38:30;2.30;;;1.50;;
12840;SDS011;6487;48.626;12.486;2023-04-24T00:41:01;2.50;;;1.80;;
12840;SDS011;6487;48.626;12.486;2023-04-24T00:43:30;4.03;;;1.50;;
12840;SDS011;6487;48.626;12.486;2023-04-24T00:45:58;2.30;;;1.67;;
12840;SDS011;6487;48.626;12.486;2023-04-24T00:48:30;3.00;;;1.77;;
12840;SDS011;6487;48.626;12.486;2023-04-24T00:51:00;2.20;;;1.83;;
12840;SDS011;6487;48.626;12.486;2023-04-24T00:53:29;1.60;;;1.50;;
12840;SDS011;6487;48.626;12.486;2023-04-24T00:55:57;1.87;;;1.70;;
12840;SDS011;6487;48.626;12.486;2023-04-24T00:58:29;2.83;;;2.00;;
12840;SDS011;6487;48.626;12.486;2023-04-24T01:00:58;1.80;;;1.70;;
12840;SDS011;6487;48.626;12.486;2023-04-24T01:03:29;2.47;;;1.80;;
12840;SDS011;6487;48.626;12.486;2023-04-24T01:06:00;2.07;;;1.80;;
12840;SDS011;6487;48.626;12.486;2023-04-24T01:08:29;2.57;;;1.90;;
12840;SDS011;6487;48.626;12.486;2023-04-24T01:10:57;3.63;;;2.03;;
12840;SDS011;6487;48.626;12.486;2023-04-24T01:13:26;2.73;;;2.07;;
12840;SDS011;6487;48.626;12.486;2023-04-24T01:15:54;4.60;;;2.30;;
12840;SDS011;6487;48.626;12.486;2023-04-24T01:18:23;2.80;;;2.30;;
12840;SDS011;6487;48.626;12.486;2023-04-24T01:20:52;3.00;;;2.10;;
12840;SDS011;6487;48.626;12.486;2023-04-24T01:23:26;3.03;;;2.37;;
12840;SDS011;6487;48.626;12.486;2023-04-24T01:25:54;2.80;;;2.03;;
12840;SDS011;6487;48.626;12.486;2023-04-24T01:28:23;4.23;;;2.83;;
12840;SDS011;6487;48.626;12.486;2023-04-24T01:30:54;3.53;;;2.63;;
12840;SDS011;6487;48.626;12.486;2023-04-24T01:33:23;4.03;;;2.23;;
12840;SDS011;6487;48.626;12.486;2023-04-24T01:35:52;4.07;;;2.40;;
12840;SDS011;6487;48.626;12.486;2023-04-24T01:38:21;3.33;;;2.30;;
12840;SDS011;6487;48.626;12.486;2023-04-24T01:40:51;2.83;;;2.10;;
12840;SDS011;6487;48.626;12.486;2023-04-24T01:43:20;4.00;;;2.33;;
12840;SDS011;6487;48.626;12.486;2023-04-24T01:45:49;2.30;;;2.10;;
12840;SDS011;6487;48.626;12.486;2023-04-24T01:48:18;2.20;;;1.87;;
12840;SDS011;6487;48.626;12.486;2023-04-24T01:50:46;2.47;;;2.27;;
12840;SDS011;6487;48.626;12.486;2023-04-24T01:53:14;2.17;;;1.97;;
12840;SDS011;6487;48.626;12.486;2023-04-24T01:55:43;3.00;;;1.97;;
12840;SDS011;6487;48.626;12.486;2023-04-24T01:58:14;2.77;;;2.07;;
12840;SDS011;6487;48.626;12.486;2023-04-24T02:00:42;3.50;;;1.90;;
12840;SDS011;6487;48.626;12.486;2023-04-24T02:03:13;4.07;;;2.17;;
12840;SDS011;6487;48.626;12.486;2023-04-24T02:05:43;2.27;;;1.80;;
12840;SDS011;6487;48.626;12.486;2023-04-24T02:08:11;2.07;;;1.87;;
12840;SDS011;6487;48.626;12.486;2023-04-24T02:10:40;2.10;;;1.87;;
12840;SDS011;6487;48.626;12.486;2023-04-24T02:13:08;1.80;;;1.70;;
12840;SDS011;6487;48.626;12.486;2023-04-24T02:15:38;1.73;;;1.63;;
12840;SDS011;6487;48.626;12.486;2023-04-24T02:18:06;2.00;;;1.60;;
12840;SDS011;6487;48.626;12.486;2023-04-24T02:20:34;2.17;;;1.50;;
12840;SDS011;6487;48.626;12.486;2023-04-24T02:23:03;2.33;;;1.60;;
12840;SDS011;6487;48.626;12.486;2023-04-24T02:25:31;3.43;;;1.70;;
12840;SDS011;6487;48.626;12.486;2023-04-24T02:28:00;2.07;;;1.53;;
12840;SDS011;6487;48.626;12.486;2023-04-24T02:30:29;2.50;;;1.53;;
12840;SDS011;6487;48.626;12.486;2023-04-24T02:32:58;2.73;;;1.53;;
12840;SDS011;6487;48.626;12.486;2023-04-24T02:35:27;2.73;;;1.40;;
12840;SDS011;6487;48.626;12.486;2023-04-24T02:37:56;2.50;;;1.77;;
12840;SDS011;6487;48.626;12.486;2023-04-24T02:40:24;1.70;;;1.33;;
12840;SDS011;6487;48.626;12.486;2023-04-24T02:42:52;1.73;;;1.47;;
12840;SDS011;6487;48.626;12.486;2023-04-24T02:45:20;1.17;;;1.17;;
12840;SDS011;6487;48.626;12.486;2023-04-24T02:47:49;2.33;;;1.60;;
12840;SDS011;6487;48.626;12.486;2023-04-24T02:50:19;2.33;;;1.57;;
12840;SDS011;6487;48.626;12.486;2023-04-24T02:52:47;5.73;;;1.67;;
12840;SDS011;6487;48.626;12.486;2023-04-24T02:55:15;2.27;;;1.40;;
12840;SDS011;6487;48.626;12.486;2023-04-24T02:57:44;1.30;;;1.20;;
12840;SDS011;6487;48.626;12.486;2023-04-24T03:00:18;1.60;;;1.27;;
12840;SDS011;6487;48.626;12.486;2023-04-24T03:02:46;1.90;;;1.60;;
12840;SDS011;6487;48.626;12.486;2023-04-24T03:05:18;1.30;;;1.20;;
12840;SDS011;6487;48.626;12.486;2023-04-24T03:07:47;1.67;;;1.20;;
12840;SDS011;6487;48.626;12.486;2023-04-24T03:10:16;1.83;;;1.30;;
12840;SDS011;6487;48.626;12.486;2023-04-24T03:12:44;1.47;;;1.20;;
12840;SDS011;6487;48.626;12.486;2023-04-24T03:15:13;3.53;;;1.27;;
12840;SDS011;6487;48.626;12.486;2023-04-24T03:17:41;1.47;;;1.13;;
12840;SDS011;6487;48.626;12.486;2023-04-24T03:20:10;1.43;;;1.33;;
12840;SDS011;6487;48.626;12.486;2023-04-24T03:22:39;2.80;;;1.50;;
12840;SDS011;6487;48.626;12.486;2023-04-24T03:25:08;1.50;;;1.30;;
12840;SDS011;6487;48.626;12.486;2023-04-24T03:27:37;1.67;;;1.20;;
12840;SDS011;6487;48.626;12.486;2023-04-24T03:30:06;1.73;;;1.30;;
12840;SDS011;6487;48.626;12.486;2023-04-24T03:32:35;1.10;;;1.00;;
12840;SDS011;6487;48.626;12.486;2023-04-24T03:35:06;1.20;;;1.10;;
12840;SDS011;6487;48.626;12.486;2023-04-24T03:37:35;2.57;;;1.47;;
12840;SDS011;6487;48.626;12.486;2023-04-24T03:40:05;1.57;;;1.00;;
12840;SDS011;6487;48.626;12.486;2023-04-24T03:42:35;2.03;;;1.30;;
12840;SDS011;6487;48.626;12.486;2023-04-24T03:45:05;3.10;;;1.20;;
12840;SDS011;6487;48.626;12.486;2023-04-24T03:47:35;0.83;;;0.83;;
12840;SDS011;6487;48.626;12.486;2023-04-24T03:50:03;0.97;;;0.93;;
12840;SDS011;6487;48.626;12.486;2023-04-24T03:52:33;1.97;;;1.10;;
12840;SDS011;6487;48.626;12.486;2023-04-24T03:55:01;1.77;;;1.20;;
12840;SDS011;6487;48.626;12.486;2023-04-24T03:57:31;1.23;;;1.10;;
12840;SDS011;6487;48.626;12.486;2023-04-24T03:59:59;1.93;;;1.20;;
12840;SDS011;6487;48.626;12.486;2023-04-24T04:02:30;1.37;;;1.20;;
12840;SDS011;6487;48.626;12.486;2023-04-24T04:04:59;2.40;;;1.20;;
12840;SDS011;6487;48.626;12.486;2023-04-24T04:07:28;1.83;;;1.07;;
12840;SDS011;6487;48.626;12.486;2023-04-24T04:09:57;1.57;;;1.10;;
12840;SDS011;6487;48.626;12.486;2023-04-24T04:12:25;3.53;;;1.40;;
12840;SDS011;6487;48.626;12.486;2023-04-24T04:14:55;2.40;;;1.17;;
12840;SDS011;6487;48.626;12.486;2023-04-24T04:17:23;1.30;;;1.20;;
12840;SDS011;6487;48.626;12.486;2023-04-24T04:19:51;2.10;;;1.10;;
12840;SDS011;6487;48.626;12.486;2023-04-24T04:22:20;1.20;;;1.10;;
12840;SDS011;6487;48.626;12.486;2023-04-24T04:24:50;2.43;;;1.20;;
12840;SDS011;6487;48.626;12.486;2023-04-24T04:27:19;2.43;;;1.20;;
12840;SDS011;6487;48.626;12.486;2023-04-24T04:29:47;2.80;;;1.00;;
12840;SDS011;6487;48.626;12.486;2023-04-24T04:32:17;1.30;;;0.70;;
12840;SDS011;6487;48.626;12.486;2023-04-24T04:34:46;3.20;;;1.00;;
12840;SDS011;6487;48.626;12.486;2023-04-24T04:37:18;2.10;;;0.97;;
12840;SDS011;6487;48.626;12.486;2023-04-24T04:39:47;0.80;;;0.70;;
12840;SDS011;6487;48.626;12.486;2023-04-24T04:42:15;1.37;;;1.00;;
12840;SDS011;6487;48.626;12.486;2023-04-24T04:44:45;1.70;;;1.10;;
12840;SDS011;6487;48.626;12.486;2023-04-24T04:47:13;2.20;;;0.93;;
12840;SDS011;6487;48.626;12.486;2023-04-24T04:49:43;1.97;;;1.10;;
12840;SDS011;6487;48.626;12.486;2023-04-24T04:52:12;1.10;;;0.80;;
12840;SDS011;6487;48.626;12.486;2023-04-24T04:54:40;6.53;;;1.10;;
12840;SDS011;6487;48.626;12.486;2023-04-24T04:57:12;3.13;;;1.20;;
12840;SDS011;6487;48.626;12.486;2023-04-24T04:59:41;2.07;;;0.90;;
12840;SDS011;6487;48.626;12.486;2023-04-24T05:02:09;1.43;;;0.97;;
12840;SDS011;6487;48.626;12.486;2023-04-24T05:04:38;3.27;;;1.87;;
12840;SDS011;6487;48.626;12.486;2023-04-24T05:07:08;0.90;;;0.90;;
12840;SDS011;6487;48.626;12.486;2023-04-24T05:09:36;1.30;;;0.80;;
12840;SDS011;6487;48.626;12.486;2023-04-24T05:12:04;1.07;;;0.97;;
12840;SDS011;6487;48.626;12.486;2023-04-24T05:14:33;2.67;;;1.03;;
12840;SDS011;6487;48.626;12.486;2023-04-24T05:17:02;1.27;;;0.90;;
12840;SDS011;6487;48.626;12.486;2023-04-24T05:19:32;3.97;;;0.90;;
12840;SDS011;6487;48.626;12.486;2023-04-24T05:22:04;1.43;;;0.80;;
12840;SDS011;6487;48.626;12.486;2023-04-24T05:24:34;1.70;;;1.00;;
12840;SDS011;6487;48.626;12.486;2023-04-24T05:27:03;1.77;;;0.83;;
12840;SDS011;6487;48.626;12.486;2023-04-24T05:29:32;2.97;;;0.70;;
12840;SDS011;6487;48.626;12.486;2023-04-24T05:32:01;2.33;;;0.77;;
12840;SDS011;6487;48.626;12.486;2023-04-24T05:34:29;0.73;;;0.73;;
12840;SDS011;6487;48.626;12.486;2023-04-24T05:36:57;1.60;;;1.00;;
12840;SDS011;6487;48.626;12.486;2023-04-24T05:39:26;2.17;;;1.13;;
12840;SDS011;6487;48.626;12.486;2023-04-24T05:41:55;1.83;;;0.70;;
12840;SDS011;6487;48.626;12.486;2023-04-24T05:44:24;1.07;;;0.80;;
12840;SDS011;6487;48.626;12.486;2023-04-24T05:46:53;1.03;;;0.90;;
12840;SDS011;6487;48.626;12.486;2023-04-24T05:49:22;1.80;;;1.00;;
12840;SDS011;6487;48.626;12.486;2023-04-24T05:51:50;0.80;;;0.80;;
12840;SDS011;6487;48.626;12.486;2023-04-24T05:54:19;1.10;;;1.00;;
12840;SDS011;6487;48.626;12.486;2023-04-24T05:56:47;1.10;;;0.77;;
12840;SDS011;6487;48.626;12.486;2023-04-24T05:59:18;1.63;;;0.80;;
12840;SDS011;6487;48.626;12.486;2023-04-24T06:01:46;0.87;;;0.70;;
12840;SDS011;6487;48.626;12.486;2023-04-24T06:04:15;0.70;;;0.63;;
12840;SDS011;6487;48.626;12.486;2023-04-24T06:06:46;1.47;;;0.80;;
12840;SDS011;6487;48.626;12.486;2023-04-24T06:09:17;0.73;;;0.73;;
12840;SDS011;6487;48.626;12.486;2023-04-24T06:11:45;0.70;;;0.70;;
12840;SDS011;6487;48.626;12.486;2023-04-24T06:14:16;1.83;;;0.90;;
12840;SDS011;6487;48.626;12.486;2023-04-24T06:16:46;0.83;;;0.80;;
12840;SDS011;6487;48.626;12.486;2023-04-24T06:19:15;2.00;;;1.30;;
12840;SDS011;6487;48.626;12.486;2023-04-24T06:21:44;1.40;;;1.00;;
12840;SDS011;6487;48.626;12.486;2023-04-24T06:24:13;1.40;;;1.10;;
12840;SDS011;6487;48.626;12.486;2023-04-24T06:26:42;1.97;;;0.87;;
12840;SDS011;6487;48.626;12.486;2023-04-24T06:29:10;1.20;;;1.10;;
12840;SDS011;6487;48.626;12.486;2023-04-24T06:31:40;1.47;;;1.27;;
12840;SDS011;6487;48.626;12.486;2023-04-24T06:34:09;1.67;;;1.57;;
12840;SDS011;6487;48.626;12.486;2023-04-24T06:36:37;1.57;;;1.20;;
12840;SDS011;6487;48.626;12.486;2023-04-24T06:39:05;1.73;;;1.00;;
12840;SDS011;6487;48.626;12.486;2023-04-24T06:41:34;1.83;;;1.20;;
12840;SDS011;6487;48.626;12.486;2023-04-24T06:44:02;2.13;;;1.10;;
12840;SDS011;6487;48.626;12.486;2023-04-24T06:46:30;3.13;;;1.20;;
12840;SDS011;6487;48.626;12.486;2023-04-24T06:49:00;2.13;;;1.37;;
12840;SDS011;6487;48.626;12.486;2023-04-24T06:51:28;1.30;;;1.20;;
12840;SDS011;6487;48.626;12.486;2023-04-24T06:53:59;1.30;;;1.00;;
12840;SDS011;6487;48.626;12.486;2023-04-24T06:56:28;0.87;;;0.60;;
12840;SDS011;6487;48.626;12.486;2023-04-24T06:58:56;1.10;;;0.70;;
12840;SDS011;6487;48.626;12.486;2023-04-24T07:01:24;2.70;;;0.90;;
12840;SDS011;6487;48.626;12.486;2023-04-24T07:03:53;1.60;;;1.00;;
12840;SDS011;6487;48.626;12.486;2023-04-24T07:06:23;1.10;;;0.93;;
12840;SDS011;6487;48.626;12.486;2023-04-24T07:08:53;2.03;;;1.13;;
12840;SDS011;6487;48.626;12.486;2023-04-24T07:11:22;1.23;;;1.13;;
12840;SDS011;6487;48.626;12.486;2023-04-24T07:13:55;0.70;;;0.60;;
12840;SDS011;6487;48.626;12.486;2023-04-24T07:16:23;1.73;;;0.90;;
12840;SDS011;6487;48.626;12.486;2023-04-24T07:18:52;0.70;;;0.70;;
12840;SDS011;6487;48.626;12.486;2023-04-24T07:21:20;1.17;;;0.80;;
12840;SDS011;6487;48.626;12.486;2023-04-24T07:23:50;0.93;;;0.87;;
12840;SDS011;6487;48.626;12.486;2023-04-24T07:26:19;1.10;;;0.90;;
12840;SDS011;6487;48.626;12.486;2023-04-24T07:28:48;1.97;;;0.63;;
12840;SDS011;6487;48.626;12.486;2023-04-24T07:31:16;0.80;;;0.70;;
12840;SDS011;6487;48.626;12.486;2023-04-24T07:33:47;1.27;;;0.70;;
12840;SDS011;6487;48.626;12.486;2023-04-24T07:36:16;1.27;;;0.80;;
12840;SDS011;6487;48.626;12.486;2023-04-24T07:38:46;1.17;;;0.80;;
12840;SDS011;6487;48.626;12.486;2023-04-24T07:41:15;2.30;;;0.87;;
12840;SDS011;6487;48.626;12.486;2023-04-24T07:43:44;1.03;;;0.87;;
12840;SDS011;6487;48.626;12.486;2023-04-24T07:46:12;2.90;;;0.80;;
12840;SDS011;6487;48.626;12.486;2023-04-24T07:48:40;1.10;;;1.00;;
12840;SDS011;6487;48.626;12.486;2023-04-24T07:51:09;2.00;;;0.70;;
12840;SDS011;6487;48.626;12.486;2023-04-24T07:53:40;1.63;;;0.80;;
12840;SDS011;6487;48.626;12.486;2023-04-24T07:56:09;2.17;;;1.03;;
12840;SDS011;6487;48.626;12.486;2023-04-24T07:58:39;5.83;;;1.20;;
12840;SDS011;6487;48.626;12.486;2023-04-24T08:01:07;1.73;;;0.90;;
12840;SDS011;6487;48.626;12.486;2023-04-24T08:03:37;2.57;;;0.90;;
12840;SDS011;6487;48.626;12.486;2023-04-24T08:06:06;1.63;;;0.90;;
12840;SDS011;6487;48.626;12.486;2023-04-24T08:08:34;1.60;;;1.40;;
12840;SDS011;6487;48.626;12.486;2023-04-24T08:11:03;1.27;;;0.80;;
12840;SDS011;6487;48.626;12.486;2023-04-24T08:13:31;1.30;;;0.90;;
12840;SDS011;6487;48.626;12.486;2023-04-24T08:16:01;1.57;;;0.83;;
12840;SDS011;6487;48.626;12.486;2023-04-24T08:18:29;2.40;;;0.70;;
12840;SDS011;6487;48.626;12.486;2023-04-24T08:20:58;1.40;;;1.00;;
12840;SDS011;6487;48.626;12.486;2023-04-24T08:23:27;3.93;;;1.03;;
12840;SDS011;6487;48.626;12.486;2023-04-24T08:25:56;2.70;;;0.80;;
12840;SDS011;6487;48.626;12.486;2023-04-24T08:28:24;0.87;;;0.70;;
12840;SDS011;6487;48.626;12.486;2023-04-24T08:30:53;1.03;;;0.80;;
12840;SDS011;6487;48.626;12.486;2023-04-24T08:33:23;0.97;;;0.67;;
12840;SDS011;6487;48.626;12.486;2023-04-24T08:35:52;1.03;;;0.77;;
12840;SDS011;6487;48.626;12.486;2023-04-24T08:38:20;1.00;;;0.67;;
12840;SDS011;6487;48.626;12.486;2023-04-24T08:40:49;2.63;;;0.90;;
12840;SDS011;6487;48.626;12.486;2023-04-24T08:43:18;1.47;;;0.87;;
12840;SDS011;6487;48.626;12.486;2023-04-24T08:45:49;0.70;;;0.60;;
12840;SDS011;6487;48.626;12.486;2023-04-24T08:48:23;1.13;;;0.70;;
12840;SDS011;6487;48.626;12.486;2023-04-24T08:50:57;0.90;;;0.80;;
12840;SDS011;6487;48.626;12.486;2023-04-24T08:53:27;1.70;;;0.70;;
12840;SDS011;6487;48.626;12.486;2023-04-24T08:55:55;0.83;;;0.70;;
12840;SDS011;6487;48.626;12.486;2023-04-24T08:58:24;0.77;;;0.73;;
12840;SDS011;6487;48.626;12.486;2023-04-24T09:00:54;3.03;;;1.00;;
12840;SDS011;6487;48.626;12.486;2023-04-24T09:03:24;1.63;;;0.90;;
12840;SDS011;6487;48.626;12.486;2023-04-24T09:05:55;2.00;;;0.80;;
12840;SDS011;6487;48.626;12.486;2023-04-24T09:08:25;2.03;;;0.80;;
12840;SDS011;6487;48.626;12.486;2023-04-24T09:11:00;1.20;;;0.80;;
12840;SDS011;6487;48.626;12.486;2023-04-24T09:13:30;0.97;;;0.70;;
12840;SDS011;6487;48.626;12.486;2023-04-24T09:16:00;1.53;;;1.00;;
12840;SDS011;6487;48.626;12.486;2023-04-24T09:18:30;1.00;;;0.80;;
12840;SDS011;6487;48.626;12.486;2023-04-24T09:21:00;0.90;;;0.70;;
12840;SDS011;6487;48.626;12.486;2023-04-24T09:23:32;2.87;;;0.60;;
12840;SDS011;6487;48.626;12.486;2023-04-24T09:26:01;1.37;;;1.10;;
12840;SDS011;6487;48.626;12.486;2023-04-24T09:28:33;0.53;;;0.50;;
12840;SDS011;6487;48.626;12.486;2023-04-24T09:31:05;1.80;;;0.70;;
12840;SDS011;6487;48.626;12.486;2023-04-24T09:33:38;0.80;;;0.80;;
12840;SDS011;6487;48.626;12.486;2023-04-24T09:36:07;2.47;;;0.73;;
12840;SDS011;6487;48.626;12.486;2023-04-24T09:38:36;1.00;;;0.90;;
12840;SDS011;6487;48.626;12.486;2023-04-24T09:41:06;1.53;;;0.90;;
12840;SDS011;6487;48.626;12.486;2023-04-24T09:43:36;2.60;;;0.80;;
12840;SDS011;6487;48.626;12.486;2023-04-24T09:46:05;1.00;;;0.80;;
12840;SDS011;6487;48.626;12.486;2023-04-24T09:48:36;0.80;;;0.80;;
12840;SDS011;6487;48.626;12.486;2023-04-24T09:51:06;1.00;;;0.70;;
12840;SDS011;6487;48.626;12.486;2023-04-24T09:53:37;1.33;;;0.83;;
12840;SDS011;6487;48.626;12.486;2023-04-24T09:56:07;1.37;;;1.00;;
12840;SDS011;6487;48.626;12.486;2023-04-24T09:58:38;1.77;;;0.80;;
12840;SDS011;6487;48.626;12.486;2023-04-24T10:01:07;1.43;;;0.80;;
12840;SDS011;6487;48.626;12.486;2023-04-24T10:03:35;1.17;;;0.93;;
12840;SDS011;6487;48.626;12.486;2023-04-24T10:06:05;1.30;;;0.97;;
12840;SDS011;6487;48.626;12.486;2023-04-24T10:08:36;0.97;;;0.80;;
12840;SDS011;6487;48.626;12.486;2023-04-24T10:11:04;1.13;;;0.80;;
12840;SDS011;6487;48.626;12.486;2023-04-24T10:13:34;0.73;;;0.60;;
12840;SDS011;6487;48.626;12.486;2023-04-24T10:16:03;1.10;;;0.73;;
12840;SDS011;6487;48.626;12.486;2023-04-24T10:18:32;4.27;;;1.00;;
12840;SDS011;6487;48.626;12.486;2023-04-24T10:21:02;1.30;;;1.00;;
12840;SDS011;6487;48.626;12.486;2023-04-24T10:23:32;1.10;;;0.80;;
12840;SDS011;6487;48.626;12.486;2023-04-24T10:26:01;0.90;;;0.80;;
12840;SDS011;6487;48.626;12.486;2023-04-24T10:28:30;0.70;;;0.70;;
12840;SDS011;6487;48.626;12.486;2023-04-24T10:30:59;2.03;;;1.10;;
12840;SDS011;6487;48.626;12.486;2023-04-24T10:33:28;1.07;;;0.97;;
12840;SDS011;6487;48.626;12.486;2023-04-24T10:35:57;2.57;;;0.93;;
12840;SDS011;6487;48.626;12.486;2023-04-24T10:38:31;1.10;;;0.80;;
12840;SDS011;6487;48.626;12.486;2023-04-24T10:41:07;1.33;;;1.20;;
12840;SDS011;6487;48.626;12.486;2023-04-24T10:43:40;1.23;;;1.13;;
12840;SDS011;6487;48.626;12.486;2023-04-24T10:46:09;2.03;;;1.40;;
12840;SDS011;6487;48.626;12.486;2023-04-24T10:48:42;1.80;;;1.37;;
12840;SDS011;6487;48.626;12.486;2023-04-24T10:51:11;1.40;;;1.30;;
12840;SDS011;6487;48.626;12.486;2023-04-24T10:53:42;1.73;;;1.13;;
12840;SDS011;6487;48.626;12.486;2023-04-24T10:56:10;1.50;;;1.20;;
12840;SDS011;6487;48.626;12.486;2023-04-24T10:58:40;1.50;;;1.40;;
12840;SDS011;6487;48.626;12.486;2023-04-24T11:01:23;2.50;;;1.20;;
12840;SDS011;6487;48.626;12.486;2023-04-24T11:03:57;1.73;;;1.40;;
12840;SDS011;6487;48.626;12.486;2023-04-24T11:06:28;1.40;;;1.27;;
12840;SDS011;6487;48.626;12.486;2023-04-24T11:09:03;1.63;;;1.53;;
12840;SDS011;6487;48.626;12.486;2023-04-24T11:11:33;1.70;;;1.60;;
12840;SDS011;6487;48.626;12.486;2023-04-24T11:14:08;2.67;;;1.77;;
12840;SDS011;6487;48.626;12.486;2023-04-24T11:16:42;1.37;;;1.27;;
12840;SDS011;6487;48.626;12.486;2023-04-24T11:19:17;1.47;;;1.37;;
12840;SDS011;6487;48.626;12.486;2023-04-24T11:21:54;1.43;;;1.30;;
12840;SDS011;6487;48.626;12.486;2023-04-24T11:24:32;3.07;;;1.63;;
12840;SDS011;6487;48.626;12.486;2023-04-24T11:27:09;1.40;;;1.30;;
12840;SDS011;6487;48.626;12.486;2023-04-24T11:29:43;3.40;;;1.40;;
12840;SDS011;6487;48.626;12.486;2023-04-24T11:32:22;2.43;;;1.27;;
12840;SDS011;6487;48.626;12.486;2023-04-24T11:34:56;1.53;;;1.37;;
12840;SDS011;6487;48.626;12.486;2023-04-24T11:37:27;1.70;;;1.30;;
12840;SDS011;6487;48.626;12.486;2023-04-24T11:40:02;1.30;;;1.20;;
12840;SDS011;6487;48.626;12.486;2023-04-24T11:42:35;1.67;;;1.40;;
12840;SDS011;6487;48.626;12.486;2023-04-24T11:45:12;1.93;;;1.40;;
12840;SDS011;6487;48.626;12.486;2023-04-24T11:47:43;2.23;;;1.17;;
12840;SDS011;6487;48.626;12.486;2023-04-24T11:50:12;1.20;;;1.10;;
12840;SDS011;6487;48.626;12.486;2023-04-24T11:52:42;1.00;;;0.90;;
12840;SDS011;6487;48.626;12.486;2023-04-24T11:55:24;1.10;;;1.00;;
12840;SDS011;6487;48.626;12.486;2023-04-24T11:57:57;1.50;;;1.20;;
12840;SDS011;6487;48.626;12.486;2023-04-24T12:00:27;2.90;;;1.30;;
12840;SDS011;6487;48.626;12.486;2023-04-24T12:03:04;1.30;;;1.20;;
12840;SDS011;6487;48.626;12.486;2023-04-24T12:05:35;1.37;;;1.10;;
12840;SDS011;6487;48.626;12.486;2023-04-24T12:08:04;2.50;;;1.40;;
12840;SDS011;6487;48.626;12.486;2023-04-24T12:10:35;2.23;;;1.23;;
12840;SDS011;6487;48.626;12.486;2023-04-24T12:13:03;1.10;;;1.00;;
12840;SDS011;6487;48.626;12.486;2023-04-24T12:15:32;1.30;;;1.03;;
12840;SDS011;6487;48.626;12.486;2023-04-24T12:18:00;2.40;;;1.40;;
12840;SDS011;6487;48.626;12.486;2023-04-24T12:20:29;4.47;;;3.63;;
12840;SDS011;6487;48.626;12.486;2023-04-24T12:23:00;6.27;;;4.60;;
12840;SDS011;6487;48.626;12.486;2023-04-24T12:25:29;4.23;;;3.83;;
12840;SDS011;6487;48.626;12.486;2023-04-24T12:28:10;2.80;;;1.40;;
12840;SDS011;6487;48.626;12.486;2023-04-24T12:30:40;1.20;;;1.10;;
12840;SDS011;6487;48.626;12.486;2023-04-24T12:33:17;2.50;;;0.93;;
12840;SDS011;6487;48.626;12.486;2023-04-24T12:35:47;1.83;;;1.03;;
12840;SDS011;6487;48.626;12.486;2023-04-24T12:38:16;2.93;;;1.33;;
12840;SDS011;6487;48.626;12.486;2023-04-24T12:40:58;1.37;;;1.20;;
12840;SDS011;6487;48.626;12.486;2023-04-24T12:43:32;2.00;;;1.10;;
12840;SDS011;6487;48.626;12.486;2023-04-24T12:46:02;2.10;;;1.17;;
12840;SDS011;6487;48.626;12.486;2023-04-24T12:48:31;1.27;;;0.90;;
12840;SDS011;6487;48.626;12.486;2023-04-24T12:50:59;1.00;;;1.00;;
12840;SDS011;6487;48.626;12.486;2023-04-24T12:53:28;1.53;;;0.93;;
12840;SDS011;6487;48.626;12.486;2023-04-24T12:55:57;1.30;;;1.10;;
12840;SDS011;6487;48.626;12.486;2023-04-24T12:58:26;1.90;;;1.13;;
12840;SDS011;6487;48.626;12.486;2023-04-24T13:00:55;1.20;;;0.90;;
12840;SDS011;6487;48.626;12.486;2023-04-24T13:03:24;2.07;;;1.10;;
12840;SDS011;6487;48.626;12.486;2023-04-24T13:05:52;1.27;;;1.00;;
12840;SDS011;6487;48.626;12.486;2023-04-24T13:08:21;1.10;;;1.00;;
12840;SDS011;6487;48.626;12.486;2023-04-24T13:10:49;2.83;;;1.30;;
12840;SDS011;6487;48.626;12.486;2023-04-24T13:13:20;1.30;;;1.10;;
12840;SDS011;6487;48.626;12.486;2023-04-24T13:15:48;1.40;;;1.30;;
12840;SDS011;6487;48.626;12.486;2023-04-24T13:18:18;2.97;;;1.20;;
12840;SDS011;6487;48.626;12.486;2023-04-24T13:20:46;1.63;;;1.53;;
12840;SDS011;6487;48.626;12.486;2023-04-24T13:23:15;1.60;;;1.50;;
12840;SDS011;6487;48.626;12.486;2023-04-24T13:25:43;1.40;;;1.30;;
12840;SDS011;6487;48.626;12.486;2023-04-24T13:28:12;0.77;;;0.77;;
12840;SDS011;6487;48.626;12.486;2023-04-24T13:30:40;1.40;;;1.30;;
12840;SDS011;6487;48.626;12.486;2023-04-24T13:33:08;1.13;;;1.07;;
12840;SDS011;6487;48.626;12.486;2023-04-24T13:35:38;1.13;;;1.10;;
12840;SDS011;6487;48.626;12.486;2023-04-24T13:38:07;1.50;;;1.40;;
12840;SDS011;6487;48.626;12.486;2023-04-24T13:40:38;2.37;;;1.20;;
12840;SDS011;6487;48.626;12.486;2023-04-24T13:43:06;1.27;;;1.00;;
12840;SDS011;6487;48.626;12.486;2023-04-24T13:45:35;1.30;;;1.20;;
12840;SDS011;6487;48.626;12.486;2023-04-24T13:48:04;1.43;;;1.33;;
12840;SDS011;6487;48.626;12.486;2023-04-24T13:50:32;2.23;;;1.17;;
12840;SDS011;6487;48.626;12.486;2023-04-24T13:53:02;2.63;;;1.30;;
12840;SDS011;6487;48.626;12.486;2023-04-24T13:55:30;3.07;;;1.20;;
12840;SDS011;6487;48.626;12.486;2023-04-24T13:57:59;1.40;;;1.17;;
12840;SDS011;6487;48.626;12.486;2023-04-24T14:00:27;2.80;;;1.70;;
12840;SDS011;6487;48.626;12.486;2023-04-24T14:02:56;2.03;;;1.60;;
12840;SDS011;6487;48.626;12.486;2023-04-24T14:05:27;3.03;;;1.67;;
12840;SDS011;6487;48.626;12.486;2023-04-24T14:07:55;2.17;;;1.80;;
12840;SDS011;6487;48.626;12.486;2023-04-24T14:10:31;1.70;;;1.40;;
12840;SDS011;6487;48.626;12.486;2023-04-24T14:12:59;4.10;;;1.50;;
12840;SDS011;6487;48.626;12.486;2023-04-24T14:15:27;1.70;;;1.50;;
12840;SDS011;6487;48.626;12.486;2023-04-24T14:17:56;1.27;;;1.17;;
12840;SDS011;6487;48.626;12.486;2023-04-24T14:20:27;2.33;;;1.33;;
12840;SDS011;6487;48.626;12.486;2023-04-24T14:22:56;3.10;;;1.13;;
12840;SDS011;6487;48.626;12.486;2023-04-24T14:25:25;1.40;;;1.07;;
12840;SDS011;6487;48.626;12.486;2023-04-24T14:27:55;2.77;;;1.20;;
12840;SDS011;6487;48.626;12.486;2023-04-24T14:30:23;1.93;;;1.27;;
12840;SDS011;6487;48.626;12.486;2023-04-24T14:32:51;1.33;;;1.10;;
12840;SDS011;6487;48.626;12.486;2023-04-24T14:35:20;1.47;;;1.33;;
12840;SDS011;6487;48.626;12.486;2023-04-24T14:37:49;2.80;;;1.20;;
12840;SDS011;6487;48.626;12.486;2023-04-24T14:40:17;3.17;;;1.33;;
12840;SDS011;6487;48.626;12.486;2023-04-24T14:43:07;3.20;;;1.30;;
12840;SDS011;6487;48.626;12.486;2023-04-24T14:45:36;1.17;;;1.07;;
12840;SDS011;6487;48.626;12.486;2023-04-24T14:48:06;1.13;;;0.90;;
12840;SDS011;6487;48.626;12.486;2023-04-24T14:50:35;4.20;;;1.20;;
12840;SDS011;6487;48.626;12.486;2023-04-24T14:53:04;1.97;;;1.10;;
12840;SDS011;6487;48.626;12.486;2023-04-24T14:55:32;1.03;;;0.90;;
12840;SDS011;6487;48.626;12.486;2023-04-24T14:58:02;1.20;;;0.90;;
12840;SDS011;6487;48.626;12.486;2023-04-24T15:00:32;1.53;;;1.43;;
12840;SDS011;6487;48.626;12.486;2023-04-24T15:03:01;1.20;;;1.13;;